createdAt,value
2024-02-12T00:01:47.937Z,0.75
2024-02-12T00:04:16.032Z,1.00
2024-02-12T00:06:44.172Z,0.70
2024-02-12T00:09:11.106Z,0.75
2024-02-12T00:11:38.473Z,0.80
2024-02-12T00:14:05.708Z,0.90
2024-02-12T00:16:32.824Z,0.50
2024-02-12T00:19:01.078Z,0.77
2024-02-12T00:21:30.184Z,0.60
2024-02-12T00:23:57.185Z,0.80
2024-02-12T00:26:27.311Z,0.80
2024-02-12T00:28:57.899Z,0.70
2024-02-12T00:31:24.728Z,0.60
2024-02-12T00:33:51.834Z,0.50
2024-02-12T00:36:19.446Z,0.50
2024-02-12T00:38:46.886Z,0.50
2024-02-12T00:41:14.376Z,0.60
2024-02-12T00:43:44.964Z,0.60
2024-02-12T00:46:12.653Z,0.75
2024-02-12T00:48:40.157Z,0.55
2024-02-12T00:51:07.515Z,0.82
2024-02-12T00:53:35.099Z,0.70
2024-02-12T00:56:04.211Z,0.73
2024-02-12T00:58:32.225Z,0.55
2024-02-12T01:00:59.258Z,1.35
2024-02-12T01:03:26.736Z,0.98
2024-02-12T01:05:55.140Z,0.80
2024-02-12T01:08:22.716Z,0.82
2024-02-12T01:10:49.494Z,0.70
2024-02-12T01:13:16.254Z,1.20
2024-02-12T01:15:43.084Z,0.75
2024-02-12T01:18:11.293Z,0.80
2024-02-12T01:20:39.828Z,1.00
2024-02-12T01:23:08.004Z,0.98
2024-02-12T01:25:35.453Z,1.27
2024-02-12T01:28:02.212Z,1.30
2024-02-12T01:30:29.916Z,0.90
2024-02-12T01:32:57.511Z,0.90
2024-02-12T01:35:24.573Z,1.40
2024-02-12T01:37:54.303Z,1.40
2024-02-12T01:40:20.991Z,1.20
2024-02-12T01:42:51.276Z,1.17
2024-02-12T01:45:25.197Z,1.50
2024-02-12T01:47:59.225Z,1.23
2024-02-12T01:50:27.695Z,1.05
2024-02-12T01:52:55.592Z,2.10
2024-02-12T01:55:24.518Z,2.05
2024-02-12T01:57:51.870Z,1.70
2024-02-12T02:00:20.864Z,1.63
2024-02-12T02:02:48.153Z,1.20
2024-02-12T02:05:15.138Z,1.55
2024-02-12T02:07:42.895Z,1.00
2024-02-12T02:10:16.157Z,1.00
2024-02-12T02:12:43.605Z,1.30
2024-02-12T02:15:11.078Z,1.40
2024-02-12T02:17:38.096Z,0.90
2024-02-12T02:20:08.398Z,1.30
2024-02-12T02:22:35.683Z,1.67
2024-02-12T02:25:03.054Z,1.30
2024-02-12T02:27:29.718Z,1.40
2024-02-12T02:29:56.417Z,1.52
2024-02-12T02:32:23.426Z,1.50
2024-02-12T02:34:50.584Z,1.20
2024-02-12T02:37:17.452Z,2.38
2024-02-12T02:39:44.364Z,1.42
2024-02-12T02:42:12.890Z,1.33
2024-02-12T02:44:40.925Z,1.40
2024-02-12T02:47:09.704Z,1.30
2024-02-12T02:49:36.770Z,1.33
2024-02-12T02:52:04.096Z,1.80
2024-02-12T02:54:30.954Z,1.15
2024-02-12T02:56:58.388Z,1.60
2024-02-12T02:59:26.314Z,1.15
2024-02-12T03:01:53.339Z,1.38
2024-02-12T03:04:20.155Z,1.58
2024-02-12T03:06:47.014Z,1.30
2024-02-12T03:09:14.964Z,1.20
2024-02-12T03:11:41.971Z,1.35
2024-02-12T03:14:10.268Z,1.52
2024-02-12T03:16:37.697Z,1.60
2024-02-12T03:19:06.683Z,1.45
2024-02-12T03:21:34.229Z,1.45
2024-02-12T03:24:01.050Z,1.27
2024-02-12T03:26:27.884Z,1.40
2024-02-12T03:28:54.694Z,1.50
2024-02-12T03:31:21.450Z,1.83
2024-02-12T03:33:50.850Z,1.70
2024-02-12T03:36:17.999Z,2.00
2024-02-12T03:38:46.002Z,1.85
2024-02-12T03:41:25.289Z,1.58
2024-02-12T03:43:58.442Z,2.20
2024-02-12T03:46:32.245Z,1.60
2024-02-12T03:49:18.296Z,1.90
2024-02-12T03:52:03.819Z,2.20
2024-02-12T03:54:49.285Z,2.42
2024-02-12T03:57:34.824Z,1.67
2024-02-12T04:00:02.768Z,1.58
2024-02-12T04:02:29.686Z,1.92
2024-02-12T04:04:56.415Z,1.60
2024-02-12T04:07:24.648Z,1.73
2024-02-12T04:09:51.922Z,1.63
2024-02-12T04:12:18.718Z,1.70
2024-02-12T04:14:45.548Z,1.60
2024-02-12T04:17:15.367Z,1.30
2024-02-12T04:19:44.173Z,1.90
2024-02-12T04:22:11.523Z,1.73
2024-02-12T04:24:42.669Z,1.88
2024-02-12T04:27:10.963Z,1.50
2024-02-12T04:29:39.497Z,2.30
2024-02-12T04:32:17.154Z,2.10
2024-02-12T04:34:44.020Z,1.98
2024-02-12T04:37:12.171Z,2.28
2024-02-12T04:39:39.630Z,2.30
2024-02-12T04:42:06.795Z,1.98
2024-02-12T04:44:34.025Z,1.95
2024-02-12T04:47:01.474Z,1.35
2024-02-12T04:49:33.022Z,1.35
2024-02-12T04:51:59.808Z,1.60
2024-02-12T04:54:26.536Z,1.23
2024-02-12T04:56:53.269Z,1.83
2024-02-12T04:59:20.330Z,1.67
2024-02-12T05:01:47.120Z,1.80
2024-02-12T05:04:14.115Z,1.80
2024-02-12T05:06:40.841Z,1.52
2024-02-12T05:09:11.829Z,1.63
2024-02-12T05:11:40.298Z,1.80
2024-02-12T05:14:07.442Z,1.20
2024-02-12T05:16:35.212Z,1.40
2024-02-12T05:19:21.567Z,2.00
2024-02-12T05:22:07.580Z,1.60
2024-02-12T05:24:34.831Z,1.75
2024-02-12T05:27:02.732Z,1.23
2024-02-12T05:29:29.948Z,1.35
2024-02-12T05:31:57.067Z,1.33
2024-02-12T05:34:24.619Z,1.30
2024-02-12T05:36:56.094Z,1.40
2024-02-12T05:39:23.449Z,1.80
2024-02-12T05:41:50.442Z,1.30
2024-02-12T05:44:17.881Z,1.33
2024-02-12T05:46:44.620Z,1.30
2024-02-12T05:49:15.528Z,1.63
2024-02-12T05:51:47.686Z,1.58
2024-02-12T05:54:14.338Z,1.58
2024-02-12T05:56:41.994Z,1.80
2024-02-12T05:59:10.770Z,1.70
2024-02-12T06:01:37.626Z,1.55
2024-02-12T06:04:04.582Z,2.03
2024-02-12T06:06:31.803Z,2.05
2024-02-12T06:08:58.976Z,2.08
2024-02-12T06:11:25.838Z,1.77
2024-02-12T06:13:52.651Z,1.88
2024-02-12T06:16:19.335Z,1.65
2024-02-12T06:18:48.062Z,2.40
2024-02-12T06:21:14.975Z,1.85
2024-02-12T06:23:41.648Z,1.63
2024-02-12T06:26:08.429Z,1.77
2024-02-12T06:28:35.846Z,1.55
2024-02-12T06:31:02.538Z,1.70
2024-02-12T06:33:29.371Z,2.17
2024-02-12T06:35:57.826Z,1.95
2024-02-12T06:38:24.794Z,2.40
2024-02-12T06:40:51.608Z,2.47
2024-02-12T06:43:18.333Z,1.90
2024-02-12T06:45:44.999Z,2.10
2024-02-12T06:48:11.813Z,2.58
2024-02-12T06:50:38.678Z,2.08
2024-02-12T06:53:09.435Z,1.65
2024-02-12T06:55:36.158Z,1.80
2024-02-12T06:58:03.171Z,1.63
2024-02-12T07:00:31.091Z,1.83
2024-02-12T07:02:58.058Z,1.90
2024-02-12T07:05:26.614Z,2.00
2024-02-12T07:07:54.418Z,2.10
2024-02-12T07:10:24.265Z,1.92
2024-02-12T07:12:51.761Z,1.85
2024-02-12T07:15:18.583Z,2.35
2024-02-12T07:17:48.376Z,2.55
2024-02-12T07:20:15.269Z,2.03
2024-02-12T07:22:42.050Z,2.15
2024-02-12T07:25:09.861Z,2.22
2024-02-12T07:27:37.769Z,1.83
2024-02-12T07:30:08.545Z,2.45
2024-02-12T07:32:39.090Z,3.35
2024-02-12T07:35:11.868Z,2.95
2024-02-12T07:37:42.544Z,2.83
2024-02-12T07:40:13.105Z,3.40
2024-02-12T07:42:42.226Z,2.90
2024-02-12T07:45:12.114Z,3.47
2024-02-12T07:47:40.435Z,2.88
2024-02-12T07:50:07.667Z,3.17
2024-02-12T07:52:34.458Z,3.00
2024-02-12T07:55:02.385Z,3.42
2024-02-12T07:57:29.273Z,4.13
2024-02-12T07:59:57.602Z,3.78
2024-02-12T08:02:25.608Z,4.10
2024-02-12T08:04:52.946Z,3.80
2024-02-12T08:07:22.593Z,3.58
2024-02-12T08:09:51.561Z,3.40
2024-02-12T08:12:19.559Z,4.45
2024-02-12T08:14:46.544Z,4.07
2024-02-12T08:17:13.342Z,3.70
2024-02-12T08:19:55.238Z,4.80
2024-02-12T08:22:24.758Z,4.32
2024-02-12T08:24:54.822Z,4.47
2024-02-12T08:27:21.490Z,4.53
2024-02-12T08:29:49.184Z,4.00
2024-02-12T08:32:15.947Z,4.80
2024-02-12T08:34:42.841Z,4.05
2024-02-12T08:37:09.844Z,5.28
2024-02-12T08:39:38.020Z,4.95
2024-02-12T08:42:05.297Z,4.72
2024-02-12T08:44:33.090Z,4.72
2024-02-12T08:47:02.986Z,5.07
2024-02-12T08:49:29.860Z,5.22
2024-02-12T08:51:57.646Z,5.03
2024-02-12T08:54:24.600Z,5.05
2024-02-12T08:56:51.321Z,5.53
2024-02-12T08:59:20.461Z,4.97
2024-02-12T09:01:47.358Z,4.68
2024-02-12T09:04:14.505Z,4.55
2024-02-12T09:06:41.866Z,5.47
2024-02-12T09:09:13.904Z,6.13
2024-02-12T09:11:43.032Z,5.72
2024-02-12T09:14:10.487Z,5.55
2024-02-12T09:16:40.570Z,5.00
2024-02-12T09:19:07.507Z,6.25
2024-02-12T09:21:34.407Z,5.75
2024-02-12T09:24:01.424Z,5.75
2024-02-12T09:26:28.222Z,5.75
2024-02-12T09:28:55.286Z,6.45
2024-02-12T09:31:22.023Z,5.80
2024-02-12T09:33:48.992Z,5.18
2024-02-12T09:36:17.171Z,5.78
2024-02-12T09:38:44.006Z,6.68
2024-02-12T09:41:15.880Z,6.50
2024-02-12T09:43:45.264Z,5.78
2024-02-12T09:46:15.149Z,5.47
2024-02-12T09:48:42.701Z,4.80
2024-02-12T09:51:10.381Z,5.38
2024-02-12T09:53:41.306Z,4.45
2024-02-12T09:56:08.948Z,5.10
2024-02-12T09:58:37.553Z,4.50
2024-02-12T10:01:06.635Z,4.07
2024-02-12T10:03:36.352Z,4.82
2024-02-12T10:06:03.468Z,4.45
2024-02-12T10:08:31.838Z,4.40
2024-02-12T10:10:58.673Z,4.43
2024-02-12T10:13:25.616Z,3.72
2024-02-12T10:15:56.743Z,3.63
2024-02-12T10:18:23.538Z,3.88
2024-02-12T10:20:51.163Z,4.03
2024-02-12T10:23:20.216Z,4.35
2024-02-12T10:25:52.507Z,4.47
2024-02-12T10:28:20.168Z,4.47
2024-02-12T10:30:50.066Z,3.95
2024-02-12T10:33:17.718Z,4.18
2024-02-12T10:35:48.647Z,4.30
2024-02-12T10:38:17.183Z,4.45
2024-02-12T10:40:46.921Z,5.40
2024-02-12T10:43:16.712Z,4.18
2024-02-12T10:45:48.822Z,4.03
2024-02-12T10:48:18.733Z,4.80
2024-02-12T10:50:49.445Z,3.85
2024-02-12T10:53:19.734Z,4.03
2024-02-12T10:55:47.104Z,3.72
2024-02-12T10:58:14.599Z,3.40
2024-02-12T11:00:49.197Z,4.25
2024-02-12T11:03:19.293Z,3.90
2024-02-12T11:05:46.347Z,4.10
2024-02-12T11:08:19.483Z,4.35
2024-02-12T11:10:50.114Z,3.92
2024-02-12T11:13:18.514Z,4.15
2024-02-12T11:15:52.033Z,3.60
2024-02-12T11:18:23.816Z,3.47
2024-02-12T11:20:52.114Z,3.42
2024-02-12T11:23:23.810Z,3.83
2024-02-12T11:25:55.410Z,3.55
2024-02-12T11:28:24.866Z,3.85
2024-02-12T11:30:51.964Z,3.40
2024-02-12T11:33:18.908Z,3.67
2024-02-12T11:35:46.464Z,3.90
2024-02-12T11:38:15.823Z,3.63
2024-02-12T11:40:42.554Z,3.80
2024-02-12T11:43:09.416Z,3.83
2024-02-12T11:45:36.740Z,3.20
2024-02-12T11:48:12.146Z,3.47
2024-02-12T11:50:39.414Z,3.22
2024-02-12T11:53:06.815Z,3.50
2024-02-12T11:55:34.452Z,3.38
2024-02-12T11:58:01.251Z,3.70
2024-02-12T12:00:29.858Z,3.40
2024-02-12T12:02:56.733Z,3.42
2024-02-12T12:05:27.781Z,3.70
2024-02-12T12:07:57.507Z,3.58
2024-02-12T12:10:26.490Z,3.83
2024-02-12T12:12:59.807Z,3.65
2024-02-12T12:15:29.403Z,3.20
2024-02-12T12:17:57.538Z,3.35
2024-02-12T12:20:27.355Z,3.28
2024-02-12T12:22:54.491Z,3.35
2024-02-12T12:25:21.339Z,3.35
2024-02-12T12:27:55.537Z,3.20
2024-02-12T12:30:23.548Z,3.58
2024-02-12T12:32:52.651Z,4.50
2024-02-12T12:35:20.261Z,3.50
2024-02-12T12:37:47.101Z,3.75
2024-02-12T12:40:27.018Z,3.60
2024-02-12T12:42:58.739Z,3.58
2024-02-12T12:45:25.941Z,3.65
2024-02-12T12:47:53.054Z,4.60
2024-02-12T12:50:20.234Z,4.13
2024-02-12T12:52:47.015Z,3.40
2024-02-12T12:55:15.477Z,3.22
2024-02-12T12:57:47.034Z,3.55
2024-02-12T13:00:27.945Z,3.92
2024-02-12T13:02:55.456Z,3.90
2024-02-12T13:05:22.537Z,3.75
2024-02-12T13:08:16.653Z,4.20
2024-02-12T13:10:42.119Z,3.83
2024-02-12T13:13:15.334Z,3.80
2024-02-12T13:15:44.764Z,3.45
2024-02-12T13:18:14.523Z,3.65
2024-02-12T13:20:43.888Z,3.38
2024-02-12T13:23:11.217Z,3.45
2024-02-12T13:25:38.504Z,3.60
2024-02-12T13:28:10.715Z,3.50
2024-02-12T13:33:06.942Z,3.45
2024-02-12T13:35:34.285Z,3.90
2024-02-12T13:38:01.729Z,3.83
2024-02-12T13:40:31.622Z,4.18
2024-02-12T13:42:59.084Z,3.90
2024-02-12T13:45:26.354Z,3.40
2024-02-12T13:47:53.904Z,3.92
2024-02-12T13:50:21.383Z,4.10
2024-02-12T13:52:49.742Z,3.88
2024-02-12T13:55:17.241Z,4.28
2024-02-12T13:57:48.224Z,3.72
2024-02-12T14:00:43.767Z,3.75
2024-02-12T14:03:10.272Z,3.90
2024-02-12T14:05:37.665Z,3.78
2024-02-12T14:08:05.616Z,3.58
2024-02-12T14:10:33.089Z,4.10
2024-02-12T14:13:00.900Z,4.22
2024-02-12T14:16:02.503Z,3.47
2024-02-12T14:18:14.546Z,3.80
2024-02-12T14:20:41.629Z,3.65
2024-02-12T14:23:11.526Z,3.08
2024-02-12T14:25:39.635Z,4.43
2024-02-12T14:28:06.927Z,3.20
2024-02-12T14:30:35.527Z,4.13
2024-02-12T14:33:04.105Z,2.92
2024-02-12T14:35:36.816Z,2.50
2024-02-12T14:38:04.637Z,2.63
2024-02-12T14:40:31.589Z,2.67
2024-02-12T14:42:59.155Z,2.13
2024-02-12T14:45:30.539Z,2.20
2024-02-12T14:48:06.421Z,2.53
2024-02-12T14:50:34.364Z,2.90
2024-02-12T14:53:02.014Z,2.70
2024-02-12T14:55:28.754Z,2.60
2024-02-12T14:57:55.574Z,2.92
2024-02-12T15:00:25.522Z,2.78
2024-02-12T15:02:54.437Z,2.58
2024-02-12T15:05:21.952Z,2.65
2024-02-12T15:07:51.326Z,2.40
2024-02-12T15:10:23.035Z,2.90
2024-02-12T15:12:54.047Z,2.65
2024-02-12T15:15:21.176Z,3.17
2024-02-12T15:17:52.059Z,3.47
2024-02-12T15:20:22.538Z,3.15
2024-02-12T15:22:51.178Z,3.35
2024-02-12T15:25:24.119Z,2.92
2024-02-12T15:27:52.289Z,2.95
2024-02-12T15:30:21.025Z,3.15
2024-02-12T15:32:51.228Z,3.72
2024-02-12T15:35:19.932Z,3.97
2024-02-12T15:37:48.174Z,3.88
2024-02-12T15:40:23.453Z,4.07
2024-02-12T15:42:53.421Z,3.67
2024-02-12T15:45:24.460Z,3.42
2024-02-12T15:47:57.502Z,3.70
2024-02-12T15:50:25.644Z,3.63
2024-02-12T15:52:55.069Z,3.80
2024-02-12T15:55:25.936Z,3.45
2024-02-12T15:57:55.678Z,3.78
2024-02-12T16:00:27.540Z,3.42
2024-02-12T16:02:56.966Z,4.30
2024-02-12T16:06:11.806Z,3.88
2024-02-12T16:08:41.770Z,3.58
2024-02-12T16:11:15.557Z,3.80
2024-02-12T16:13:44.822Z,3.78
2024-02-12T16:16:12.875Z,3.60
2024-02-12T16:18:40.036Z,4.65
2024-02-12T16:21:09.182Z,3.90
2024-02-12T16:23:37.865Z,4.25
2024-02-12T16:26:08.170Z,5.07
2024-02-12T16:28:35.068Z,4.63
2024-02-12T16:31:02.254Z,5.22
2024-02-12T16:33:29.129Z,4.40
2024-02-12T16:35:56.139Z,3.78
2024-02-12T16:38:23.282Z,4.03
2024-02-12T16:40:50.195Z,4.43
2024-02-12T16:43:17.055Z,3.85
2024-02-12T16:45:43.933Z,4.70
2024-02-12T16:48:13.776Z,4.43
2024-02-12T16:50:41.156Z,4.63
2024-02-12T16:53:10.108Z,4.53
2024-02-12T16:55:39.698Z,4.93
2024-02-12T16:58:07.194Z,4.60
2024-02-12T17:00:34.384Z,5.10
2024-02-12T17:03:01.292Z,5.70
2024-02-12T17:05:28.102Z,6.05
2024-02-12T17:08:02.518Z,7.25
2024-02-12T17:10:37.814Z,6.28
2024-02-12T17:13:06.026Z,5.72
2024-02-12T17:15:35.130Z,6.28
2024-02-12T17:18:05.696Z,6.78
2024-02-12T17:20:33.160Z,6.45
2024-02-12T17:23:01.820Z,5.68
2024-02-12T17:25:28.938Z,6.30
2024-02-12T17:27:55.590Z,6.35
2024-02-12T17:30:23.954Z,6.47
2024-02-12T17:32:52.159Z,6.15
2024-02-12T17:35:20.564Z,8.02
2024-02-12T17:37:49.648Z,8.70
2024-02-12T17:40:16.388Z,8.40
2024-02-12T17:42:43.670Z,9.20
2024-02-12T17:45:11.290Z,7.82
2024-02-12T17:47:41.458Z,7.80
2024-02-12T17:50:09.463Z,7.47
2024-02-12T17:52:36.449Z,7.75
2024-02-12T17:55:03.663Z,8.10
2024-02-12T17:57:33.905Z,9.95
2024-02-12T18:00:01.079Z,8.70
2024-02-12T18:02:28.022Z,8.80
2024-02-12T18:04:54.788Z,8.02
2024-02-12T18:07:21.572Z,7.63
2024-02-12T18:09:55.947Z,7.43
2024-02-12T18:12:23.330Z,7.50
2024-02-12T18:14:51.099Z,8.38
2024-02-12T18:17:24.421Z,7.72
2024-02-12T18:19:53.042Z,6.53
2024-02-12T18:22:22.815Z,8.50
2024-02-12T18:24:49.616Z,6.68
2024-02-12T18:27:16.723Z,7.15
2024-02-12T18:29:44.187Z,6.60
2024-02-12T18:32:12.566Z,6.43
2024-02-12T18:34:39.575Z,6.70
2024-02-12T18:37:06.920Z,6.97
2024-02-12T18:39:33.811Z,6.45
2024-02-12T18:42:00.793Z,7.97
2024-02-12T18:44:29.536Z,7.22
2024-02-12T18:46:58.215Z,7.63
2024-02-12T18:49:25.321Z,8.18
2024-02-12T18:51:52.314Z,7.13
2024-02-12T18:54:19.079Z,7.53
2024-02-12T18:56:45.899Z,6.53
2024-02-12T18:59:12.722Z,7.25
2024-02-12T19:01:40.649Z,9.13
2024-02-12T19:04:07.792Z,8.05
2024-02-12T19:06:34.625Z,9.63
2024-02-12T19:09:10.109Z,9.27
2024-02-12T19:11:37.103Z,10.80
2024-02-12T19:14:04.450Z,8.77
2024-02-12T19:16:33.831Z,8.50
2024-02-12T19:19:00.936Z,8.35
2024-02-12T19:21:27.701Z,8.55
2024-02-12T19:23:54.608Z,8.43
2024-02-12T19:26:22.667Z,9.20
2024-02-12T19:28:49.909Z,9.07
2024-02-12T19:31:17.177Z,10.10
2024-02-12T19:33:44.002Z,9.00
2024-02-12T19:36:12.143Z,8.07
2024-02-12T19:38:39.713Z,9.00
2024-02-12T19:41:07.803Z,8.70
2024-02-12T19:43:34.727Z,8.93
2024-02-12T19:46:01.475Z,8.40
2024-02-12T19:48:28.317Z,8.00
2024-02-12T19:50:55.805Z,8.40
2024-02-12T19:53:25.270Z,7.63
2024-02-12T19:55:53.612Z,7.03
2024-02-12T19:58:21.418Z,7.35
2024-02-12T20:00:48.452Z,7.75
2024-02-12T20:03:15.282Z,6.50
2024-02-12T20:05:42.113Z,6.38
2024-02-12T20:08:08.920Z,6.68
2024-02-12T20:10:36.819Z,5.80
2024-02-12T20:13:05.794Z,6.20
2024-02-12T20:15:35.493Z,5.13
2024-02-12T20:18:04.833Z,4.88
2024-02-12T20:20:36.527Z,3.67
2024-02-12T20:23:03.608Z,3.50
2024-02-12T20:25:30.433Z,3.45
2024-02-12T20:27:57.588Z,3.80
2024-02-12T20:30:24.513Z,4.03
2024-02-12T20:32:55.506Z,3.63
2024-02-12T20:35:24.991Z,3.33
2024-02-12T20:37:51.920Z,3.33
2024-02-12T20:40:18.663Z,2.88
2024-02-12T20:42:45.433Z,2.58
2024-02-12T20:45:12.514Z,2.75
2024-02-12T20:47:42.233Z,2.13
2024-02-12T20:50:11.798Z,2.28
2024-02-12T20:52:39.032Z,1.90
2024-02-12T20:55:06.257Z,1.75
2024-02-12T20:57:33.082Z,1.80
2024-02-12T20:59:59.765Z,1.65
2024-02-12T21:02:28.733Z,1.95
2024-02-12T21:04:55.680Z,1.77
2024-02-12T21:07:23.595Z,1.55
2024-02-12T21:09:51.266Z,1.88
2024-02-12T21:12:18.350Z,2.50
2024-02-12T21:14:45.610Z,1.83
2024-02-12T21:17:12.602Z,1.88
2024-02-12T21:19:39.428Z,1.88
2024-02-12T21:22:09.594Z,1.90
2024-02-12T21:24:38.536Z,2.00
2024-02-12T21:27:06.273Z,1.90
2024-02-12T21:29:33.518Z,1.83
2024-02-12T21:32:00.273Z,1.75
2024-02-12T21:34:27.939Z,1.52
2024-02-12T21:36:54.834Z,1.58
2024-02-12T21:39:34.625Z,1.55
2024-02-12T21:42:09.715Z,1.63
2024-02-12T21:44:37.877Z,1.88
2024-02-12T21:47:07.719Z,1.65
2024-02-12T21:49:34.672Z,1.83
2024-02-12T21:52:01.638Z,1.85
2024-02-12T21:54:28.288Z,1.58
2024-02-12T21:56:55.070Z,1.50
2024-02-12T21:59:21.797Z,2.20
2024-02-12T22:01:48.516Z,2.25
2024-02-12T22:04:15.517Z,1.80
2024-02-12T22:06:42.378Z,2.03
2024-02-12T22:09:09.139Z,2.38
2024-02-12T22:11:35.940Z,2.17
2024-02-12T22:14:02.690Z,1.98
2024-02-12T22:16:31.460Z,2.28
2024-02-12T22:18:58.483Z,2.03
2024-02-12T22:21:25.322Z,1.80
2024-02-12T22:23:52.020Z,2.15
2024-02-12T22:26:18.945Z,1.80
2024-02-12T22:28:46.697Z,2.03
2024-02-12T22:31:13.355Z,1.73
2024-02-12T22:33:40.285Z,1.65
2024-02-12T22:36:07.355Z,1.88
2024-02-12T22:38:34.290Z,2.40
2024-02-12T22:41:01.048Z,2.10
2024-02-12T22:43:27.716Z,2.20
2024-02-12T22:45:56.557Z,2.00
2024-02-12T22:48:23.805Z,1.90
2024-02-12T22:50:51.141Z,2.45
2024-02-12T22:53:19.011Z,2.08
2024-02-12T22:55:45.974Z,2.00
2024-02-12T22:58:12.672Z,2.17
2024-02-12T23:00:42.304Z,2.13
2024-02-12T23:03:09.180Z,2.25
2024-02-12T23:05:36.026Z,2.67
2024-02-12T23:08:03.175Z,2.83
2024-02-12T23:10:30.587Z,2.05
2024-02-12T23:12:57.400Z,2.17
2024-02-12T23:15:24.354Z,2.38
2024-02-12T23:17:54.188Z,2.25
2024-02-12T23:20:22.141Z,2.53
2024-02-12T23:22:49.029Z,2.20
2024-02-12T23:25:15.701Z,2.40
2024-02-12T23:27:42.405Z,2.45
2024-02-12T23:30:14.335Z,2.40
2024-02-12T23:32:44.991Z,2.83
2024-02-12T23:35:12.329Z,2.58
2024-02-12T23:37:39.153Z,2.53
2024-02-12T23:40:11.017Z,3.03
2024-02-12T23:42:43.659Z,3.03
2024-02-12T23:45:11.219Z,3.20
2024-02-12T23:47:38.893Z,2.80
2024-02-12T23:50:12.757Z,3.50
2024-02-12T23:52:41.501Z,3.00
2024-02-12T23:55:10.606Z,3.28
2024-02-12T23:57:41.264Z,3.47
